createdAt,value
2018-04-12T00:00:20.223Z,17.55
2018-04-12T00:02:47.716Z,17.75
2018-04-12T00:05:15.289Z,17.87
2018-04-12T00:07:43.459Z,18.23
2018-04-12T00:10:12.017Z,17.95
2018-04-12T00:12:40.228Z,18.25
2018-04-12T00:15:08.541Z,18.60
2018-04-12T00:17:37.747Z,18.23
2018-04-12T00:20:05.282Z,18.50
2018-04-12T00:22:32.778Z,18.92
2018-04-12T00:25:00.356Z,18.17
2018-04-12T00:27:31.990Z,17.92
2018-04-12T00:30:01.031Z,19.05
2018-04-12T00:32:29.198Z,19.02
2018-04-12T00:34:57.793Z,18.85
2018-04-12T00:37:25.337Z,19.35
2018-04-12T00:39:52.846Z,18.75
2018-04-12T00:42:21.250Z,19.33
2018-04-12T00:44:49.589Z,17.20
2018-04-12T00:47:18.783Z,19.92
2018-04-12T00:49:48.876Z,19.55
2018-04-12T00:52:16.363Z,19.25
2018-04-12T00:54:43.966Z,19.58
2018-04-12T00:57:11.459Z,19.95
2018-04-12T00:59:38.955Z,20.20
2018-04-12T01:02:12.364Z,20.10
2018-04-12T01:04:40.505Z,20.17
2018-04-12T01:07:11.887Z,20.15
2018-04-12T01:09:39.500Z,19.20
2018-04-12T01:12:07.013Z,19.90
2018-04-12T01:14:34.514Z,19.77
2018-04-12T01:17:02.024Z,19.42
2018-04-12T01:19:29.524Z,19.80
2018-04-12T01:21:57.088Z,19.27
2018-04-12T01:24:24.622Z,20.65
2018-04-12T01:26:52.298Z,20.73
2018-04-12T01:29:19.810Z,20.23
2018-04-12T01:31:47.290Z,21.10
2018-04-12T01:34:14.798Z,20.48
2018-04-12T01:36:42.731Z,20.65
2018-04-12T01:39:11.815Z,20.37
2018-04-12T01:41:39.567Z,20.65
2018-04-12T01:44:07.739Z,20.20
2018-04-12T01:46:35.269Z,21.42
2018-04-12T01:49:02.772Z,20.45
2018-04-12T01:51:30.278Z,20.43
2018-04-12T01:53:57.783Z,21.40
2018-04-12T01:56:25.300Z,20.62
2018-04-12T01:58:52.903Z,21.40
2018-04-12T02:01:20.436Z,21.10
2018-04-12T02:03:47.924Z,20.43
2018-04-12T02:06:15.442Z,21.37
2018-04-12T02:08:42.951Z,21.05
2018-04-12T02:11:10.470Z,20.70
2018-04-12T02:13:38.024Z,21.12
2018-04-12T02:16:06.216Z,21.67
2018-04-12T02:18:33.951Z,21.12
2018-04-12T02:21:02.168Z,22.08
2018-04-12T02:23:29.676Z,22.58
2018-04-12T02:25:57.158Z,21.40
2018-04-12T02:28:24.718Z,21.62
2018-04-12T02:30:52.272Z,20.67
2018-04-12T02:33:20.042Z,21.87
2018-04-12T02:35:48.202Z,22.62
2018-04-12T02:38:15.706Z,21.80
2018-04-12T02:40:43.233Z,22.35
2018-04-12T02:43:10.714Z,21.67
2018-04-12T02:45:38.216Z,21.80
2018-04-12T02:48:05.747Z,22.27
2018-04-12T02:50:35.209Z,21.20
2018-04-12T02:53:03.774Z,21.10
2018-04-12T02:55:31.254Z,20.88
2018-04-12T02:57:58.782Z,20.48
2018-04-12T03:00:26.301Z,21.65
2018-04-12T03:02:53.799Z,21.15
2018-04-12T03:05:21.317Z,21.30
2018-04-12T03:07:49.754Z,20.67
2018-04-12T03:10:17.328Z,20.45
2018-04-12T03:12:44.881Z,21.42
2018-04-12T03:15:12.392Z,21.15
2018-04-12T03:17:39.883Z,20.48
2018-04-12T03:20:07.382Z,20.95
2018-04-12T03:22:35.290Z,20.52
2018-04-12T03:25:03.712Z,20.50
2018-04-12T03:27:31.739Z,20.10
2018-04-12T03:29:59.248Z,20.25
2018-04-12T03:32:27.251Z,19.58
2018-04-12T03:34:54.730Z,19.37
2018-04-12T03:40:15.263Z,20.15
2018-04-12T03:42:43.310Z,19.23
2018-04-12T03:45:12.087Z,19.37
2018-04-12T03:47:39.606Z,18.48
2018-04-12T03:50:07.102Z,18.48
2018-04-12T03:52:34.606Z,19.35
2018-04-12T03:55:02.109Z,19.27
2018-04-12T03:57:29.878Z,19.20
2018-04-12T03:59:57.489Z,19.83
2018-04-12T04:02:25.035Z,19.45
2018-04-12T04:04:52.514Z,18.92
2018-04-12T04:07:20.042Z,20.77
2018-04-12T04:09:47.552Z,18.02
2018-04-12T04:12:15.026Z,17.12
2018-04-12T04:14:48.405Z,17.58
2018-04-12T04:17:28.811Z,17.62
2018-04-12T04:20:07.969Z,17.98
2018-04-12T04:22:35.450Z,18.00
2018-04-12T04:25:02.955Z,17.45
2018-04-12T04:27:30.462Z,18.12
2018-04-12T04:29:57.984Z,18.30
2018-04-12T04:32:25.500Z,18.83
2018-04-12T04:34:53.106Z,18.08
2018-04-12T04:37:23.732Z,17.98
2018-04-12T04:39:51.266Z,19.70
2018-04-12T04:42:19.618Z,19.45
2018-04-12T04:44:47.118Z,19.60
2018-04-12T04:47:14.613Z,18.00
2018-04-12T04:49:42.362Z,20.00
2018-04-12T04:52:11.307Z,18.80
2018-04-12T04:54:39.667Z,19.17
2018-04-12T04:57:07.170Z,18.23
2018-04-12T04:59:34.678Z,19.37
2018-04-12T05:02:02.203Z,19.10
2018-04-12T05:04:29.706Z,19.35
2018-04-12T05:06:57.226Z,18.10
2018-04-12T05:09:24.739Z,18.80
2018-04-12T05:11:53.175Z,18.73
2018-04-12T05:14:20.689Z,19.02
2018-04-12T05:16:48.178Z,18.70
2018-04-12T05:19:15.714Z,19.15
2018-04-12T05:21:43.215Z,17.67
2018-04-12T05:24:11.641Z,18.98
2018-04-12T05:26:39.762Z,17.87
2018-04-12T05:29:08.170Z,18.35
2018-04-12T05:31:35.667Z,18.45
2018-04-12T05:34:03.158Z,17.90
2018-04-12T05:36:30.665Z,17.67
2018-04-12T05:38:58.180Z,19.17
2018-04-12T05:41:25.720Z,19.80
2018-04-12T05:43:53.295Z,19.05
2018-04-12T05:46:20.817Z,18.30
2018-04-12T05:48:48.337Z,20.17
2018-04-12T05:51:15.845Z,19.60
2018-04-12T05:53:43.333Z,20.30
2018-04-12T05:56:10.826Z,19.90
2018-04-12T05:58:41.458Z,20.73
2018-04-12T06:01:11.187Z,19.98
2018-04-12T06:03:39.865Z,19.45
2018-04-12T06:06:07.827Z,20.35
2018-04-12T06:08:35.749Z,21.65
2018-04-12T06:11:03.242Z,21.17
2018-04-12T06:13:30.782Z,23.55
2018-04-12T06:16:00.320Z,24.90
2018-04-12T06:18:28.858Z,25.37
2018-04-12T06:20:56.809Z,27.10
2018-04-12T06:23:24.318Z,29.20
2018-04-12T06:25:52.220Z,30.98
2018-04-12T06:28:19.753Z,27.35
2018-04-12T06:30:47.266Z,23.42
2018-04-12T06:33:15.210Z,21.42
2018-04-12T06:35:43.618Z,20.75
2018-04-12T06:38:12.426Z,23.00
2018-04-12T06:40:39.926Z,21.37
2018-04-12T06:43:07.446Z,22.35
2018-04-12T06:45:34.924Z,20.92
2018-04-12T06:48:03.289Z,21.65
2018-04-12T06:50:31.794Z,21.80
2018-04-12T06:53:00.014Z,22.25
2018-04-12T06:55:28.407Z,23.58
2018-04-12T06:57:56.898Z,23.33
2018-04-12T07:00:24.393Z,22.60
2018-04-12T07:02:51.884Z,23.20
2018-04-12T07:05:19.396Z,23.12
2018-04-12T07:07:47.775Z,22.48
2018-04-12T07:10:15.342Z,22.98
2018-04-12T07:12:43.757Z,23.48
2018-04-12T07:15:11.261Z,22.75
2018-04-12T08:01:20.910Z,17.37
2018-04-12T08:03:51.302Z,17.85
2018-04-12T08:06:36.978Z,17.43
2018-04-12T08:09:04.728Z,16.63
2018-04-12T08:11:32.425Z,15.80
2018-04-12T08:14:00.187Z,16.20
2018-04-12T08:25:43.879Z,15.77
2018-04-12T08:28:11.543Z,15.07
2018-04-12T08:30:39.224Z,16.07
2018-04-12T08:33:07.728Z,14.87
2018-04-12T08:44:43.698Z,14.90
2018-04-12T08:47:11.283Z,14.23
2018-04-12T08:49:38.956Z,14.73
2018-04-12T09:01:14.782Z,14.43
2018-04-12T09:03:42.412Z,13.97
2018-04-12T09:06:09.985Z,15.13
2018-04-12T09:17:46.521Z,14.37
2018-04-12T09:20:14.269Z,13.53
2018-04-12T09:22:41.836Z,14.77
2018-04-12T09:31:19.521Z,14.13
2018-04-12T09:33:56.819Z,14.60
2018-04-12T09:36:24.411Z,13.40
2018-04-12T09:38:52.065Z,14.70
2018-04-12T09:41:20.496Z,14.60
2018-04-12T09:46:39.678Z,15.27
2018-04-12T09:49:11.978Z,14.77
2018-04-12T09:51:39.560Z,14.83
2018-04-12T09:54:07.215Z,14.07
2018-04-12T09:56:34.774Z,15.17
2018-04-12T09:59:03.292Z,14.60
2018-04-12T10:10:07.225Z,14.17
2018-04-12T10:12:37.409Z,14.50
2018-04-12T10:15:05.012Z,14.23
2018-04-12T10:26:41.168Z,13.47
2018-04-12T10:29:08.892Z,13.77
2018-04-12T10:31:36.923Z,13.20
2018-04-12T10:43:09.280Z,14.03
2018-04-12T10:45:36.965Z,12.80
2018-04-12T10:48:04.644Z,13.33
2018-04-12T10:59:44.857Z,14.27
2018-04-12T11:02:12.672Z,14.43
2018-04-12T11:04:40.345Z,14.33
2018-04-12T11:07:08.337Z,14.97
2018-04-12T11:18:44.980Z,14.03
2018-04-12T11:21:12.642Z,14.80
2018-04-12T11:23:40.917Z,13.57
2018-04-12T11:35:17.434Z,14.50
2018-04-12T11:37:44.975Z,16.00
2018-04-12T11:40:12.653Z,14.67
2018-04-12T11:51:48.651Z,15.63
2018-04-12T11:54:16.214Z,15.07
2018-04-12T11:56:43.817Z,15.53
2018-04-12T12:08:20.264Z,15.17
2018-04-12T12:10:48.863Z,14.67
2018-04-12T12:13:30.085Z,14.60
2018-04-12T12:25:07.568Z,15.50
2018-04-12T12:42:57.900Z,14.30
2018-04-12T12:45:27.403Z,14.80
2018-04-12T12:47:57.157Z,14.60
2018-04-12T12:59:34.132Z,13.07
2018-04-12T13:02:01.747Z,13.93
2018-04-12T13:04:29.323Z,14.23
2018-04-12T13:16:13.036Z,15.33
2018-04-12T13:18:40.612Z,15.37
2018-04-12T13:21:08.200Z,15.70
2018-04-12T13:23:35.778Z,15.37
2018-04-12T13:26:07.552Z,15.03
2018-04-12T13:38:31.166Z,15.10
2018-04-12T13:53:10.564Z,14.97
2018-04-12T13:55:38.177Z,15.77
2018-04-12T14:10:24.595Z,15.93
2018-04-12T14:13:05.281Z,15.67
2018-04-12T14:22:00.260Z,16.83
2018-04-12T14:24:29.059Z,16.40
2018-04-12T14:26:56.593Z,16.47
2018-04-12T14:29:25.337Z,16.70
2018-04-12T14:31:52.914Z,16.53
2018-04-12T14:43:29.238Z,16.10
2018-04-12T14:45:57.863Z,15.50
2018-04-12T14:48:25.579Z,16.87
2018-04-12T15:00:02.117Z,16.33
2018-04-12T15:02:29.778Z,15.40
2018-04-12T15:04:57.409Z,16.70
2018-04-12T15:13:32.245Z,15.13
2018-04-12T15:16:00.931Z,16.00
2018-04-12T15:18:28.514Z,15.87
2018-04-12T15:20:56.200Z,14.80
2018-04-12T15:23:23.774Z,14.20
2018-04-12T15:35:02.982Z,14.50
2018-04-12T15:37:32.244Z,14.47
2018-04-12T15:40:03.726Z,15.43
2018-04-12T15:51:40.101Z,13.80
2018-04-12T15:54:07.945Z,13.37
2018-04-12T15:56:35.950Z,13.90
2018-04-12T16:08:15.212Z,13.37
2018-04-12T16:10:43.081Z,13.40
2018-04-12T16:13:10.780Z,13.17
2018-04-12T16:24:46.588Z,11.67
2018-04-12T16:27:14.240Z,11.93
2018-04-12T16:29:42.026Z,11.73
2018-04-12T16:41:28.800Z,11.83
2018-04-12T16:44:05.642Z,12.57
2018-04-12T16:46:33.716Z,13.00
2018-04-12T17:01:20.540Z,12.40
2018-04-12T17:22:13.483Z,13.23
2018-04-12T17:33:49.861Z,13.23
2018-04-12T17:36:17.409Z,13.80
2018-04-12T17:38:44.993Z,13.50
2018-04-12T17:41:12.652Z,13.10
2018-04-12T17:43:43.752Z,14.17
2018-04-12T17:46:13.259Z,14.53
2018-04-12T17:48:41.161Z,14.03
2018-04-12T17:51:08.756Z,14.33
2018-04-12T17:53:36.322Z,14.33
2018-04-12T17:56:03.949Z,13.80
2018-04-12T17:58:32.797Z,14.27
2018-04-12T18:01:04.813Z,14.27
2018-04-12T18:03:36.404Z,14.77
2018-04-12T18:06:05.045Z,14.90
2018-04-12T18:08:32.575Z,15.27
2018-04-12T18:11:00.220Z,15.00
2018-04-12T18:13:27.855Z,14.90
2018-04-12T18:28:17.452Z,16.90
2018-04-12T18:30:54.155Z,15.97
2018-04-12T19:21:55.397Z,18.80
2018-04-12T19:33:31.746Z,19.10
2018-04-12T19:35:59.488Z,19.40
2018-04-12T19:38:27.619Z,18.83
2018-04-12T19:50:04.195Z,21.73
2018-04-12T19:52:31.769Z,20.97
2018-04-12T19:54:59.394Z,19.37
2018-04-12T20:06:35.513Z,19.70
2018-04-12T20:09:03.113Z,20.10
2018-04-12T20:11:30.743Z,20.50
2018-04-12T20:13:58.307Z,20.80
2018-04-12T20:25:34.763Z,20.17
2018-04-12T20:28:02.351Z,20.83
2018-04-12T20:30:29.901Z,20.30
2018-04-12T20:42:06.109Z,21.17
2018-04-12T20:44:33.785Z,20.70
2018-04-12T20:47:01.331Z,20.63
2018-04-12T20:58:37.920Z,20.80
2018-04-12T21:01:05.684Z,21.90
2018-04-12T21:03:33.312Z,21.17
2018-04-12T21:14:46.789Z,22.10
2018-04-12T21:17:14.311Z,22.37
2018-04-12T21:19:41.943Z,22.13
2018-04-12T21:22:09.584Z,20.70
2018-04-12T21:32:19.235Z,25.57
2018-04-12T21:34:46.782Z,26.93
2018-04-12T21:37:14.440Z,25.40
2018-04-12T21:39:42.907Z,23.37
2018-04-12T21:49:52.088Z,24.07
2018-04-12T21:52:19.659Z,23.93
2018-04-12T21:54:47.215Z,24.03
2018-04-12T21:57:15.434Z,24.10
2018-04-12T22:02:29.715Z,24.33
2018-04-12T22:07:59.662Z,22.87
2018-04-12T22:10:27.245Z,22.20
2018-04-12T22:12:54.809Z,22.07
2018-04-12T22:24:31.207Z,21.07
2018-04-12T22:26:58.778Z,22.70
2018-04-12T22:29:26.288Z,22.40
2018-04-12T22:31:53.907Z,21.90
2018-04-12T22:34:21.514Z,22.67
2018-04-12T22:36:49.107Z,24.37
2018-04-12T22:39:16.732Z,22.97
2018-04-12T22:41:44.348Z,23.53
2018-04-12T22:44:11.890Z,23.17
2018-04-12T22:46:39.415Z,24.13
2018-04-12T22:49:06.975Z,24.43
2018-04-12T22:51:34.573Z,23.40
2018-04-12T22:54:02.248Z,24.70
2018-04-12T22:56:29.836Z,24.33
2018-04-12T22:58:57.359Z,23.73
2018-04-12T23:01:24.919Z,22.97
2018-04-12T23:03:52.559Z,24.20
2018-04-12T23:06:20.279Z,23.10
2018-04-12T23:08:47.969Z,24.73
2018-04-12T23:11:15.875Z,24.23
2018-04-12T23:13:43.909Z,24.43
2018-04-12T23:16:11.440Z,24.07
2018-04-12T23:18:39.031Z,24.67
2018-04-12T23:21:06.585Z,25.10
2018-04-12T23:23:34.177Z,25.43
2018-04-12T23:26:01.766Z,25.67
2018-04-12T23:28:29.315Z,25.67
2018-04-12T23:30:57.580Z,26.27
2018-04-12T23:33:25.131Z,26.00
2018-04-12T23:35:52.659Z,26.53
2018-04-12T23:38:20.216Z,27.23
2018-04-12T23:40:47.877Z,26.47
2018-04-12T23:43:15.887Z,26.40
2018-04-12T23:45:44.517Z,27.20
2018-04-12T23:48:12.868Z,25.30
2018-04-12T23:50:40.410Z,26.37
2018-04-12T23:53:07.923Z,26.63
2018-04-12T23:55:35.448Z,26.00
2018-04-12T23:58:03.044Z,27.40
